sensor_id;sensor_type;location;lat;lon;timestamp;P1;durP1;ratioP1;P2;durP2;ratioP2
75691;SDS011;64307;52.508;6.090;2024-02-23T00:00:20;3.30;;;0.55;;
75691;SDS011;64307;52.508;6.090;2024-02-23T00:02:45;0.50;;;0.10;;
75691;SDS011;64307;52.508;6.090;2024-02-23T00:05:10;2.10;;;0.63;;
75691;SDS011;64307;52.508;6.090;2024-02-23T00:07:36;1.83;;;0.50;;
75691;SDS011;64307;52.508;6.090;2024-02-23T00:10:01;0.93;;;0.40;;
75691;SDS011;64307;52.508;6.090;2024-02-23T00:14:52;2.88;;;0.35;;
75691;SDS011;64307;52.508;6.090;2024-02-23T00:17:18;0.77;;;0.30;;
75691;SDS011;64307;52.508;6.090;2024-02-23T00:19:45;3.23;;;0.30;;
75691;SDS011;64307;52.508;6.090;2024-02-23T00:22:10;2.25;;;0.95;;
75691;SDS011;64307;52.508;6.090;2024-02-23T00:24:35;1.35;;;0.57;;
75691;SDS011;64307;52.508;6.090;2024-02-23T00:27:01;1.45;;;0.47;;
75691;SDS011;64307;52.508;6.090;2024-02-23T00:29:27;2.10;;;0.40;;
75691;SDS011;64307;52.508;6.090;2024-02-23T00:31:52;1.43;;;0.70;;
75691;SDS011;64307;52.508;6.090;2024-02-23T00:34:17;0.77;;;0.30;;
75691;SDS011;64307;52.508;6.090;2024-02-23T00:36:42;1.77;;;0.40;;
75691;SDS011;64307;52.508;6.090;2024-02-23T00:39:09;1.98;;;0.65;;
75691;SDS011;64307;52.508;6.090;2024-02-23T00:41:35;2.03;;;0.80;;
75691;SDS011;64307;52.508;6.090;2024-02-23T00:44:00;1.48;;;0.30;;
75691;SDS011;64307;52.508;6.090;2024-02-23T00:46:25;1.40;;;0.45;;
75691;SDS011;64307;52.508;6.090;2024-02-23T00:48:51;3.83;;;0.38;;
75691;SDS011;64307;52.508;6.090;2024-02-23T00:51:16;2.53;;;0.27;;
75691;SDS011;64307;52.508;6.090;2024-02-23T00:53:41;2.70;;;0.60;;
75691;SDS011;64307;52.508;6.090;2024-02-23T00:56:07;1.67;;;0.50;;
75691;SDS011;64307;52.508;6.090;2024-02-23T00:58:32;2.05;;;0.77;;
75691;SDS011;64307;52.508;6.090;2024-02-23T01:00:57;5.27;;;0.80;;
75691;SDS011;64307;52.508;6.090;2024-02-23T01:03:22;4.20;;;0.60;;
75691;SDS011;64307;52.508;6.090;2024-02-23T01:05:48;2.43;;;0.50;;
75691;SDS011;64307;52.508;6.090;2024-02-23T01:08:13;1.67;;;0.30;;
75691;SDS011;64307;52.508;6.090;2024-02-23T01:10:38;4.15;;;0.43;;
75691;SDS011;64307;52.508;6.090;2024-02-23T01:13:03;4.13;;;0.50;;
75691;SDS011;64307;52.508;6.090;2024-02-23T01:17:55;2.60;;;0.65;;
75691;SDS011;64307;52.508;6.090;2024-02-23T01:20:21;5.47;;;0.57;;
75691;SDS011;64307;52.508;6.090;2024-02-23T01:22:46;7.03;;;0.60;;
75691;SDS011;64307;52.508;6.090;2024-02-23T01:25:11;4.00;;;0.53;;
75691;SDS011;64307;52.508;6.090;2024-02-23T01:27:36;7.10;;;0.90;;
75691;SDS011;64307;52.508;6.090;2024-02-23T01:30:02;4.18;;;0.73;;
75691;SDS011;64307;52.508;6.090;2024-02-23T01:32:28;5.30;;;0.35;;
75691;SDS011;64307;52.508;6.090;2024-02-23T01:34:53;5.22;;;0.95;;
75691;SDS011;64307;52.508;6.090;2024-02-23T01:37:19;6.97;;;1.20;;
75691;SDS011;64307;52.508;6.090;2024-02-23T01:39:44;8.00;;;0.50;;
75691;SDS011;64307;52.508;6.090;2024-02-23T01:42:09;10.32;;;0.85;;
75691;SDS011;64307;52.508;6.090;2024-02-23T01:44:35;4.75;;;0.93;;
75691;SDS011;64307;52.508;6.090;2024-02-23T01:47:00;3.87;;;0.73;;
75691;SDS011;64307;52.508;6.090;2024-02-23T01:49:25;5.05;;;0.85;;
75691;SDS011;64307;52.508;6.090;2024-02-23T01:51:55;5.93;;;0.80;;
75691;SDS011;64307;52.508;6.090;2024-02-23T01:54:20;5.32;;;0.88;;
75691;SDS011;64307;52.508;6.090;2024-02-23T01:56:45;6.87;;;0.50;;
75691;SDS011;64307;52.508;6.090;2024-02-23T01:59:10;4.20;;;0.63;;
75691;SDS011;64307;52.508;6.090;2024-02-23T02:01:37;7.55;;;1.10;;
75691;SDS011;64307;52.508;6.090;2024-02-23T02:04:02;4.47;;;0.67;;
75691;SDS011;64307;52.508;6.090;2024-02-23T02:06:27;8.47;;;0.53;;
75691;SDS011;64307;52.508;6.090;2024-02-23T02:08:53;6.10;;;0.80;;
75691;SDS011;64307;52.508;6.090;2024-02-23T02:11:18;10.93;;;0.90;;
75691;SDS011;64307;52.508;6.090;2024-02-23T02:13:43;4.10;;;1.00;;
75691;SDS011;64307;52.508;6.090;2024-02-23T02:16:08;5.63;;;0.70;;
75691;SDS011;64307;52.508;6.090;2024-02-23T02:18:34;4.97;;;0.65;;
75691;SDS011;64307;52.508;6.090;2024-02-23T02:20:59;3.53;;;0.63;;
75691;SDS011;64307;52.508;6.090;2024-02-23T02:23:25;3.47;;;0.40;;
75691;SDS011;64307;52.508;6.090;2024-02-23T02:25:57;4.03;;;0.90;;
75691;SDS011;64307;52.508;6.090;2024-02-23T02:28:23;3.65;;;0.50;;
75691;SDS011;64307;52.508;6.090;2024-02-23T02:30:49;5.80;;;1.25;;
75691;SDS011;64307;52.508;6.090;2024-02-23T02:33:14;4.88;;;0.82;;
75691;SDS011;64307;52.508;6.090;2024-02-23T02:35:39;6.38;;;0.98;;
75691;SDS011;64307;52.508;6.090;2024-02-23T02:38:04;4.93;;;1.00;;
75691;SDS011;64307;52.508;6.090;2024-02-23T02:40:29;5.67;;;0.50;;
75691;SDS011;64307;52.508;6.090;2024-02-23T02:42:56;2.28;;;0.43;;
75691;SDS011;64307;52.508;6.090;2024-02-23T02:45:22;4.30;;;0.80;;
75691;SDS011;64307;52.508;6.090;2024-02-23T02:47:47;2.95;;;0.40;;
75691;SDS011;64307;52.508;6.090;2024-02-23T02:50:12;6.23;;;1.03;;
75691;SDS011;64307;52.508;6.090;2024-02-23T02:52:37;3.97;;;0.90;;
75691;SDS011;64307;52.508;6.090;2024-02-23T02:55:02;6.00;;;0.93;;
75691;SDS011;64307;52.508;6.090;2024-02-23T02:57:28;5.90;;;0.40;;
75691;SDS011;64307;52.508;6.090;2024-02-23T02:59:54;2.35;;;0.20;;
75691;SDS011;64307;52.508;6.090;2024-02-23T03:02:20;2.85;;;0.57;;
75691;SDS011;64307;52.508;6.090;2024-02-23T03:04:48;6.73;;;0.70;;
75691;SDS011;64307;52.508;6.090;2024-02-23T03:07:14;6.65;;;0.88;;
75691;SDS011;64307;52.508;6.090;2024-02-23T03:09:39;4.38;;;0.32;;
75691;SDS011;64307;52.508;6.090;2024-02-23T03:12:04;3.23;;;0.57;;
75691;SDS011;64307;52.508;6.090;2024-02-23T03:14:30;1.58;;;0.70;;
75691;SDS011;64307;52.508;6.090;2024-02-23T03:16:55;2.67;;;0.70;;
75691;SDS011;64307;52.508;6.090;2024-02-23T03:19:20;2.77;;;0.30;;
75691;SDS011;64307;52.508;6.090;2024-02-23T03:21:47;4.65;;;1.17;;
75691;SDS011;64307;52.508;6.090;2024-02-23T03:24:12;6.17;;;0.63;;
75691;SDS011;64307;52.508;6.090;2024-02-23T03:26:38;1.80;;;0.50;;
75691;SDS011;64307;52.508;6.090;2024-02-23T03:29:03;7.60;;;1.03;;
75691;SDS011;64307;52.508;6.090;2024-02-23T03:31:28;3.57;;;0.87;;
75691;SDS011;64307;52.508;6.090;2024-02-23T03:33:53;2.00;;;0.52;;
75691;SDS011;64307;52.508;6.090;2024-02-23T03:36:19;2.42;;;0.38;;
75691;SDS011;64307;52.508;6.090;2024-02-23T03:38:44;6.00;;;1.00;;
75691;SDS011;64307;52.508;6.090;2024-02-23T03:41:09;3.77;;;0.70;;
75691;SDS011;64307;52.508;6.090;2024-02-23T03:43:34;3.87;;;0.63;;
75691;SDS011;64307;52.508;6.090;2024-02-23T03:45:59;3.03;;;0.73;;
75691;SDS011;64307;52.508;6.090;2024-02-23T03:48:25;4.30;;;0.90;;
75691;SDS011;64307;52.508;6.090;2024-02-23T03:50:50;5.00;;;0.80;;
75691;SDS011;64307;52.508;6.090;2024-02-23T03:53:15;3.90;;;0.90;;
75691;SDS011;64307;52.508;6.090;2024-02-23T03:55:41;7.03;;;1.70;;
75691;SDS011;64307;52.508;6.090;2024-02-23T03:58:07;6.07;;;1.63;;
75691;SDS011;64307;52.508;6.090;2024-02-23T04:00:32;8.73;;;1.37;;
75691;SDS011;64307;52.508;6.090;2024-02-23T04:02:57;6.60;;;1.10;;
75691;SDS011;64307;52.508;6.090;2024-02-23T04:05:22;7.83;;;1.50;;
75691;SDS011;64307;52.508;6.090;2024-02-23T04:07:47;8.00;;;1.37;;
75691;SDS011;64307;52.508;6.090;2024-02-23T04:10:13;5.27;;;2.13;;
75691;SDS011;64307;52.508;6.090;2024-02-23T04:15:44;9.80;;;2.08;;
75691;SDS011;64307;52.508;6.090;2024-02-23T04:18:09;8.20;;;1.37;;
75691;SDS011;64307;52.508;6.090;2024-02-23T04:20:34;8.10;;;2.90;;
75691;SDS011;64307;52.508;6.090;2024-02-23T04:22:59;5.97;;;2.20;;
75691;SDS011;64307;52.508;6.090;2024-02-23T04:25:24;9.13;;;2.50;;
75691;SDS011;64307;52.508;6.090;2024-02-23T04:27:50;6.03;;;2.57;;
75691;SDS011;64307;52.508;6.090;2024-02-23T04:30:15;5.45;;;1.88;;
75691;SDS011;64307;52.508;6.090;2024-02-23T04:32:40;10.53;;;2.33;;
75691;SDS011;64307;52.508;6.090;2024-02-23T04:35:05;7.47;;;2.10;;
75691;SDS011;64307;52.508;6.090;2024-02-23T04:37:31;7.20;;;2.38;;
75691;SDS011;64307;52.508;6.090;2024-02-23T04:39:56;7.07;;;2.20;;
75691;SDS011;64307;52.508;6.090;2024-02-23T04:42:21;4.53;;;2.00;;
75691;SDS011;64307;52.508;6.090;2024-02-23T04:44:46;7.87;;;3.03;;
75691;SDS011;64307;52.508;6.090;2024-02-23T04:47:11;7.80;;;2.03;;
75691;SDS011;64307;52.508;6.090;2024-02-23T04:49:36;7.97;;;2.40;;
75691;SDS011;64307;52.508;6.090;2024-02-23T04:52:02;6.70;;;1.92;;
75691;SDS011;64307;52.508;6.090;2024-02-23T04:54:27;6.40;;;1.98;;
75691;SDS011;64307;52.508;6.090;2024-02-23T04:56:52;6.70;;;2.78;;
75691;SDS011;64307;52.508;6.090;2024-02-23T04:59:18;6.67;;;2.37;;
75691;SDS011;64307;52.508;6.090;2024-02-23T05:01:43;7.40;;;2.60;;
75691;SDS011;64307;52.508;6.090;2024-02-23T05:04:08;7.63;;;2.38;;
75691;SDS011;64307;52.508;6.090;2024-02-23T05:06:33;6.47;;;2.47;;
75691;SDS011;64307;52.508;6.090;2024-02-23T05:08:58;7.57;;;2.23;;
75691;SDS011;64307;52.508;6.090;2024-02-23T05:11:24;4.93;;;1.83;;
75691;SDS011;64307;52.508;6.090;2024-02-23T05:13:49;6.20;;;2.00;;
75691;SDS011;64307;52.508;6.090;2024-02-23T05:16:14;7.90;;;1.63;;
75691;SDS011;64307;52.508;6.090;2024-02-23T05:18:39;6.97;;;2.10;;
75691;SDS011;64307;52.508;6.090;2024-02-23T05:23:31;7.85;;;2.00;;
75691;SDS011;64307;52.508;6.090;2024-02-23T05:25:56;7.27;;;2.30;;
75691;SDS011;64307;52.508;6.090;2024-02-23T05:28:21;9.83;;;2.20;;
75691;SDS011;64307;52.508;6.090;2024-02-23T05:30:47;6.15;;;1.52;;
75691;SDS011;64307;52.508;6.090;2024-02-23T05:33:12;6.70;;;1.50;;
75691;SDS011;64307;52.508;6.090;2024-02-23T05:35:37;4.72;;;1.92;;
75691;SDS011;64307;52.508;6.090;2024-02-23T05:38:03;8.23;;;2.33;;
75691;SDS011;64307;52.508;6.090;2024-02-23T05:40:29;6.38;;;1.98;;
75691;SDS011;64307;52.508;6.090;2024-02-23T05:42:54;5.73;;;1.90;;
75691;SDS011;64307;52.508;6.090;2024-02-23T05:45:19;5.60;;;2.40;;
75691;SDS011;64307;52.508;6.090;2024-02-23T05:47:45;7.88;;;2.25;;
75691;SDS011;64307;52.508;6.090;2024-02-23T05:50:10;10.18;;;2.20;;
75691;SDS011;64307;52.508;6.090;2024-02-23T05:52:36;9.30;;;2.75;;
75691;SDS011;64307;52.508;6.090;2024-02-23T05:55:01;8.18;;;2.83;;
75691;SDS011;64307;52.508;6.090;2024-02-23T05:57:26;6.57;;;1.63;;
75691;SDS011;64307;52.508;6.090;2024-02-23T05:59:52;6.10;;;2.03;;
75691;SDS011;64307;52.508;6.090;2024-02-23T06:02:17;7.70;;;2.33;;
75691;SDS011;64307;52.508;6.090;2024-02-23T06:04:42;6.50;;;1.80;;
75691;SDS011;64307;52.508;6.090;2024-02-23T06:07:08;4.88;;;2.60;;
75691;SDS011;64307;52.508;6.090;2024-02-23T06:09:33;10.90;;;2.55;;
75691;SDS011;64307;52.508;6.090;2024-02-23T06:11:58;4.17;;;2.33;;
75691;SDS011;64307;52.508;6.090;2024-02-23T06:14:23;11.57;;;2.33;;
75691;SDS011;64307;52.508;6.090;2024-02-23T06:16:49;4.77;;;2.00;;
75691;SDS011;64307;52.508;6.090;2024-02-23T06:19:14;8.65;;;1.98;;
75691;SDS011;64307;52.508;6.090;2024-02-23T06:21:40;6.43;;;2.00;;
75691;SDS011;64307;52.508;6.090;2024-02-23T06:24:05;5.00;;;2.00;;
75691;SDS011;64307;52.508;6.090;2024-02-23T06:26:32;4.75;;;1.42;;
75691;SDS011;64307;52.508;6.090;2024-02-23T06:28:58;7.93;;;1.87;;
75691;SDS011;64307;52.508;6.090;2024-02-23T06:31:23;7.00;;;2.33;;
75691;SDS011;64307;52.508;6.090;2024-02-23T06:33:48;7.63;;;1.93;;
75691;SDS011;64307;52.508;6.090;2024-02-23T06:36:14;4.10;;;1.40;;
75691;SDS011;64307;52.508;6.090;2024-02-23T06:38:39;5.68;;;2.05;;
75691;SDS011;64307;52.508;6.090;2024-02-23T06:41:04;7.70;;;2.10;;
75691;SDS011;64307;52.508;6.090;2024-02-23T06:43:30;5.35;;;1.95;;
75691;SDS011;64307;52.508;6.090;2024-02-23T06:45:55;6.47;;;2.67;;
75691;SDS011;64307;52.508;6.090;2024-02-23T06:48:21;7.50;;;1.60;;
75691;SDS011;64307;52.508;6.090;2024-02-23T06:50:46;3.43;;;1.53;;
75691;SDS011;64307;52.508;6.090;2024-02-23T06:53:11;6.03;;;1.95;;
75691;SDS011;64307;52.508;6.090;2024-02-23T06:55:37;3.03;;;1.50;;
75691;SDS011;64307;52.508;6.090;2024-02-23T06:58:02;4.97;;;1.30;;
75691;SDS011;64307;52.508;6.090;2024-02-23T07:00:29;5.22;;;1.63;;
75691;SDS011;64307;52.508;6.090;2024-02-23T07:02:54;4.63;;;1.20;;
75691;SDS011;64307;52.508;6.090;2024-02-23T07:05:20;5.53;;;1.60;;
75691;SDS011;64307;52.508;6.090;2024-02-23T07:07:45;3.13;;;1.00;;
75691;SDS011;64307;52.508;6.090;2024-02-23T07:10:11;3.78;;;1.23;;
75691;SDS011;64307;52.508;6.090;2024-02-23T07:12:37;4.30;;;0.75;;
75691;SDS011;64307;52.508;6.090;2024-02-23T07:15:02;8.63;;;1.30;;
75691;SDS011;64307;52.508;6.090;2024-02-23T07:17:27;4.23;;;0.67;;
75691;SDS011;64307;52.508;6.090;2024-02-23T07:19:53;3.78;;;1.05;;
75691;SDS011;64307;52.508;6.090;2024-02-23T07:22:18;1.58;;;0.57;;
75691;SDS011;64307;52.508;6.090;2024-02-23T07:24:45;3.42;;;0.60;;
75691;SDS011;64307;52.508;6.090;2024-02-23T07:27:10;2.80;;;0.90;;
75691;SDS011;64307;52.508;6.090;2024-02-23T07:29:35;3.83;;;0.67;;
75691;SDS011;64307;52.508;6.090;2024-02-23T07:32:01;6.88;;;0.60;;
75691;SDS011;64307;52.508;6.090;2024-02-23T07:34:26;3.08;;;0.50;;
75691;SDS011;64307;52.508;6.090;2024-02-23T07:36:51;3.70;;;1.63;;
75691;SDS011;64307;52.508;6.090;2024-02-23T07:39:17;2.28;;;0.57;;
75691;SDS011;64307;52.508;6.090;2024-02-23T07:41:42;3.45;;;0.40;;
75691;SDS011;64307;52.508;6.090;2024-02-23T07:44:08;5.72;;;0.60;;
75691;SDS011;64307;52.508;6.090;2024-02-23T07:46:33;6.77;;;0.83;;
75691;SDS011;64307;52.508;6.090;2024-02-23T07:48:58;3.37;;;0.73;;
75691;SDS011;64307;52.508;6.090;2024-02-23T07:51:23;4.60;;;0.73;;
75691;SDS011;64307;52.508;6.090;2024-02-23T07:53:49;8.30;;;1.30;;
75691;SDS011;64307;52.508;6.090;2024-02-23T07:56:17;4.25;;;0.80;;
75691;SDS011;64307;52.508;6.090;2024-02-23T07:58:42;3.07;;;0.80;;
75691;SDS011;64307;52.508;6.090;2024-02-23T08:01:07;3.60;;;0.90;;
75691;SDS011;64307;52.508;6.090;2024-02-23T08:03:32;2.83;;;0.70;;
75691;SDS011;64307;52.508;6.090;2024-02-23T08:05:58;4.53;;;1.60;;
75691;SDS011;64307;52.508;6.090;2024-02-23T08:08:23;3.70;;;0.60;;
75691;SDS011;64307;52.508;6.090;2024-02-23T08:10:50;4.22;;;1.48;;
75691;SDS011;64307;52.508;6.090;2024-02-23T08:13:15;4.20;;;0.60;;
75691;SDS011;64307;52.508;6.090;2024-02-23T08:15:42;7.15;;;1.85;;
75691;SDS011;64307;52.508;6.090;2024-02-23T08:18:08;3.67;;;0.60;;
75691;SDS011;64307;52.508;6.090;2024-02-23T08:20:33;2.80;;;0.70;;
75691;SDS011;64307;52.508;6.090;2024-02-23T08:22:58;4.40;;;0.90;;
75691;SDS011;64307;52.508;6.090;2024-02-23T08:25:23;3.90;;;0.60;;
75691;SDS011;64307;52.508;6.090;2024-02-23T08:27:48;5.43;;;1.03;;
75691;SDS011;64307;52.508;6.090;2024-02-23T08:30:14;3.73;;;0.80;;
75691;SDS011;64307;52.508;6.090;2024-02-23T08:32:39;4.45;;;0.70;;
75691;SDS011;64307;52.508;6.090;2024-02-23T08:35:05;4.55;;;0.65;;
75691;SDS011;64307;52.508;6.090;2024-02-23T08:37:30;3.05;;;0.68;;
75691;SDS011;64307;52.508;6.090;2024-02-23T08:39:55;3.40;;;0.70;;
75691;SDS011;64307;52.508;6.090;2024-02-23T08:42:21;5.05;;;0.82;;
75691;SDS011;64307;52.508;6.090;2024-02-23T08:44:46;4.83;;;0.67;;
75691;SDS011;64307;52.508;6.090;2024-02-23T08:47:11;5.10;;;0.70;;
75691;SDS011;64307;52.508;6.090;2024-02-23T08:49:37;3.87;;;1.10;;
75691;SDS011;64307;52.508;6.090;2024-02-23T08:52:02;2.40;;;0.70;;
75691;SDS011;64307;52.508;6.090;2024-02-23T08:54:28;2.92;;;1.25;;
75691;SDS011;64307;52.508;6.090;2024-02-23T08:56:54;4.73;;;0.93;;
75691;SDS011;64307;52.508;6.090;2024-02-23T08:59:19;2.05;;;0.60;;
75691;SDS011;64307;52.508;6.090;2024-02-23T09:01:44;7.57;;;0.97;;
75691;SDS011;64307;52.508;6.090;2024-02-23T09:04:11;6.38;;;1.08;;
75691;SDS011;64307;52.508;6.090;2024-02-23T09:06:36;3.13;;;0.70;;
75691;SDS011;64307;52.508;6.090;2024-02-23T09:09:02;4.33;;;0.80;;
75691;SDS011;64307;52.508;6.090;2024-02-23T09:11:27;6.17;;;0.63;;
75691;SDS011;64307;52.508;6.090;2024-02-23T09:13:52;3.40;;;0.70;;
75691;SDS011;64307;52.508;6.090;2024-02-23T09:16:17;2.17;;;0.73;;
75691;SDS011;64307;52.508;6.090;2024-02-23T09:21:09;3.22;;;0.82;;
75691;SDS011;64307;52.508;6.090;2024-02-23T09:23:34;5.10;;;1.10;;
75691;SDS011;64307;52.508;6.090;2024-02-23T09:25:59;5.40;;;0.57;;
75691;SDS011;64307;52.508;6.090;2024-02-23T09:28:24;5.67;;;0.40;;
75691;SDS011;64307;52.508;6.090;2024-02-23T09:30:49;3.70;;;0.53;;
75691;SDS011;64307;52.508;6.090;2024-02-23T09:33:16;7.90;;;0.73;;
75691;SDS011;64307;52.508;6.090;2024-02-23T09:35:41;4.90;;;0.80;;
75691;SDS011;64307;52.508;6.090;2024-02-23T09:38:06;4.80;;;0.70;;
75691;SDS011;64307;52.508;6.090;2024-02-23T09:40:31;6.03;;;0.63;;
75691;SDS011;64307;52.508;6.090;2024-02-23T09:42:57;3.00;;;0.90;;
75691;SDS011;64307;52.508;6.090;2024-02-23T09:45:26;3.83;;;0.77;;
75691;SDS011;64307;52.508;6.090;2024-02-23T09:47:56;4.57;;;0.65;;
75691;SDS011;64307;52.508;6.090;2024-02-23T09:50:22;1.95;;;0.60;;
75691;SDS011;64307;52.508;6.090;2024-02-23T09:52:47;5.40;;;0.85;;
75691;SDS011;64307;52.508;6.090;2024-02-23T09:55:17;3.40;;;0.77;;
75691;SDS011;64307;52.508;6.090;2024-02-23T09:57:43;6.18;;;1.20;;
75691;SDS011;64307;52.508;6.090;2024-02-23T10:00:09;5.05;;;1.10;;
75691;SDS011;64307;52.508;6.090;2024-02-23T10:02:34;5.30;;;0.85;;
75691;SDS011;64307;52.508;6.090;2024-02-23T10:07:26;2.67;;;0.30;;
75691;SDS011;64307;52.508;6.090;2024-02-23T10:09:52;3.90;;;0.47;;
75691;SDS011;64307;52.508;6.090;2024-02-23T10:14:42;10.30;;;0.68;;
75691;SDS011;64307;52.508;6.090;2024-02-23T10:17:08;7.40;;;0.80;;
75691;SDS011;64307;52.508;6.090;2024-02-23T10:19:33;8.45;;;0.40;;
75691;SDS011;64307;52.508;6.090;2024-02-23T10:21:58;3.50;;;0.50;;
75691;SDS011;64307;52.508;6.090;2024-02-23T10:24:24;6.88;;;0.57;;
75691;SDS011;64307;52.508;6.090;2024-02-23T10:26:50;5.93;;;0.40;;
75691;SDS011;64307;52.508;6.090;2024-02-23T10:29:16;7.15;;;0.85;;
75691;SDS011;64307;52.508;6.090;2024-02-23T10:31:41;4.23;;;0.70;;
75691;SDS011;64307;52.508;6.090;2024-02-23T10:34:08;5.38;;;0.70;;
75691;SDS011;64307;52.508;6.090;2024-02-23T10:36:42;5.13;;;0.40;;
75691;SDS011;64307;52.508;6.090;2024-02-23T10:39:07;7.47;;;0.47;;
75691;SDS011;64307;52.508;6.090;2024-02-23T10:41:35;4.47;;;0.60;;
75691;SDS011;64307;52.508;6.090;2024-02-23T10:44:00;4.10;;;0.75;;
75691;SDS011;64307;52.508;6.090;2024-02-23T10:46:26;3.88;;;0.52;;
75691;SDS011;64307;52.508;6.090;2024-02-23T10:48:51;4.85;;;0.45;;
75691;SDS011;64307;52.508;6.090;2024-02-23T10:51:18;4.10;;;0.65;;
75691;SDS011;64307;52.508;6.090;2024-02-23T10:53:43;5.03;;;0.93;;
75691;SDS011;64307;52.508;6.090;2024-02-23T10:56:08;3.67;;;0.60;;
75691;SDS011;64307;52.508;6.090;2024-02-23T11:01:00;2.95;;;0.50;;
75691;SDS011;64307;52.508;6.090;2024-02-23T11:03:33;4.75;;;0.43;;
75691;SDS011;64307;52.508;6.090;2024-02-23T11:06:01;4.80;;;0.50;;
75691;SDS011;64307;52.508;6.090;2024-02-23T11:08:29;2.28;;;0.40;;
75691;SDS011;64307;52.508;6.090;2024-02-23T11:10:55;5.28;;;0.63;;
75691;SDS011;64307;52.508;6.090;2024-02-23T11:13:30;4.68;;;0.70;;
75691;SDS011;64307;52.508;6.090;2024-02-23T11:16:01;5.57;;;1.02;;
75691;SDS011;64307;52.508;6.090;2024-02-23T11:18:29;3.92;;;0.73;;
75691;SDS011;64307;52.508;6.090;2024-02-23T11:20:55;4.18;;;0.85;;
75691;SDS011;64307;52.508;6.090;2024-02-23T11:23:23;1.80;;;0.38;;
75691;SDS011;64307;52.508;6.090;2024-02-23T11:26:04;3.20;;;0.77;;
75691;SDS011;64307;52.508;6.090;2024-02-23T11:28:30;4.13;;;0.82;;
75691;SDS011;64307;52.508;6.090;2024-02-23T11:33:25;3.57;;;0.47;;
75691;SDS011;64307;52.508;6.090;2024-02-23T11:35:51;2.10;;;0.40;;
75691;SDS011;64307;52.508;6.090;2024-02-23T11:40:42;3.40;;;0.70;;
75691;SDS011;64307;52.508;6.090;2024-02-23T11:43:08;3.63;;;0.63;;
75691;SDS011;64307;52.508;6.090;2024-02-23T11:45:35;2.35;;;0.52;;
75691;SDS011;64307;52.508;6.090;2024-02-23T11:48:00;3.07;;;0.57;;
75691;SDS011;64307;52.508;6.090;2024-02-23T11:50:25;4.13;;;0.73;;
75691;SDS011;64307;52.508;6.090;2024-02-23T11:52:50;2.23;;;0.50;;
75691;SDS011;64307;52.508;6.090;2024-02-23T11:55:19;4.00;;;0.95;;
75691;SDS011;64307;52.508;6.090;2024-02-23T11:57:47;2.97;;;1.38;;
75691;SDS011;64307;52.508;6.090;2024-02-23T12:00:12;2.47;;;0.40;;
75691;SDS011;64307;52.508;6.090;2024-02-23T12:02:37;2.78;;;0.60;;
75691;SDS011;64307;52.508;6.090;2024-02-23T12:05:03;4.63;;;0.63;;
75691;SDS011;64307;52.508;6.090;2024-02-23T12:07:31;3.28;;;0.40;;
75691;SDS011;64307;52.508;6.090;2024-02-23T12:09:57;2.33;;;0.45;;
75691;SDS011;64307;52.508;6.090;2024-02-23T12:12:22;4.97;;;0.67;;
75691;SDS011;64307;52.508;6.090;2024-02-23T12:14:47;3.60;;;0.50;;
75691;SDS011;64307;52.508;6.090;2024-02-23T12:17:13;4.97;;;0.83;;
75691;SDS011;64307;52.508;6.090;2024-02-23T12:19:39;3.35;;;0.70;;
75691;SDS011;64307;52.508;6.090;2024-02-23T12:22:07;3.15;;;0.98;;
75691;SDS011;64307;52.508;6.090;2024-02-23T12:24:33;2.17;;;0.40;;
75691;SDS011;64307;52.508;6.090;2024-02-23T12:26:59;2.03;;;0.70;;
75691;SDS011;64307;52.508;6.090;2024-02-23T12:29:24;4.23;;;0.70;;
75691;SDS011;64307;52.508;6.090;2024-02-23T12:31:49;5.90;;;1.00;;
75691;SDS011;64307;52.508;6.090;2024-02-23T12:34:15;6.65;;;1.73;;
75691;SDS011;64307;52.508;6.090;2024-02-23T12:36:40;4.53;;;0.80;;
75691;SDS011;64307;52.508;6.090;2024-02-23T12:39:06;4.60;;;1.10;;
75691;SDS011;64307;52.508;6.090;2024-02-23T12:41:31;5.40;;;0.80;;
75691;SDS011;64307;52.508;6.090;2024-02-23T12:43:56;5.05;;;1.13;;
75691;SDS011;64307;52.508;6.090;2024-02-23T12:46:22;2.80;;;0.80;;
75691;SDS011;64307;52.508;6.090;2024-02-23T12:48:48;12.65;;;4.72;;
75691;SDS011;64307;52.508;6.090;2024-02-23T12:51:13;5.47;;;1.17;;
75691;SDS011;64307;52.508;6.090;2024-02-23T12:53:39;7.18;;;1.95;;
75691;SDS011;64307;52.508;6.090;2024-02-23T12:58:50;5.45;;;0.70;;
75691;SDS011;64307;52.508;6.090;2024-02-23T13:01:15;5.07;;;0.70;;
75691;SDS011;64307;52.508;6.090;2024-02-23T13:03:40;8.17;;;1.03;;
75691;SDS011;64307;52.508;6.090;2024-02-23T13:06:06;3.90;;;0.85;;
75691;SDS011;64307;52.508;6.090;2024-02-23T13:08:32;4.63;;;0.80;;
75691;SDS011;64307;52.508;6.090;2024-02-23T13:10:57;3.95;;;0.80;;
75691;SDS011;64307;52.508;6.090;2024-02-23T13:13:23;3.97;;;0.90;;
75691;SDS011;64307;52.508;6.090;2024-02-23T13:15:49;4.78;;;1.23;;
75691;SDS011;64307;52.508;6.090;2024-02-23T13:18:14;4.15;;;1.25;;
75691;SDS011;64307;52.508;6.090;2024-02-23T13:20:39;3.57;;;0.70;;
75691;SDS011;64307;52.508;6.090;2024-02-23T13:23:06;3.65;;;0.80;;
75691;SDS011;64307;52.508;6.090;2024-02-23T13:25:33;3.17;;;0.80;;
75691;SDS011;64307;52.508;6.090;2024-02-23T13:27:58;3.50;;;0.77;;
75691;SDS011;64307;52.508;6.090;2024-02-23T13:30:23;2.83;;;0.57;;
75691;SDS011;64307;52.508;6.090;2024-02-23T13:32:49;4.77;;;1.03;;
75691;SDS011;64307;52.508;6.090;2024-02-23T13:35:14;5.37;;;1.23;;
75691;SDS011;64307;52.508;6.090;2024-02-23T13:37:40;3.67;;;0.83;;
75691;SDS011;64307;52.508;6.090;2024-02-23T13:40:05;4.13;;;1.00;;
75691;SDS011;64307;52.508;6.090;2024-02-23T13:42:30;4.68;;;1.00;;
75691;SDS011;64307;52.508;6.090;2024-02-23T13:44:56;3.08;;;0.93;;
75691;SDS011;64307;52.508;6.090;2024-02-23T13:47:21;3.30;;;1.03;;
75691;SDS011;64307;52.508;6.090;2024-02-23T13:49:46;5.80;;;0.93;;
75691;SDS011;64307;52.508;6.090;2024-02-23T13:52:11;4.43;;;0.67;;
75691;SDS011;64307;52.508;6.090;2024-02-23T13:54:37;4.60;;;0.90;;
75691;SDS011;64307;52.508;6.090;2024-02-23T13:57:02;3.60;;;0.97;;
75691;SDS011;64307;52.508;6.090;2024-02-23T13:59:27;4.40;;;1.42;;
75691;SDS011;64307;52.508;6.090;2024-02-23T14:01:52;3.33;;;0.60;;
75691;SDS011;64307;52.508;6.090;2024-02-23T14:04:18;3.17;;;0.70;;
75691;SDS011;64307;52.508;6.090;2024-02-23T14:06:43;3.88;;;1.13;;
75691;SDS011;64307;52.508;6.090;2024-02-23T14:09:09;6.30;;;1.02;;
75691;SDS011;64307;52.508;6.090;2024-02-23T14:11:34;3.03;;;0.70;;
75691;SDS011;64307;52.508;6.090;2024-02-23T14:13:59;3.30;;;0.80;;
75691;SDS011;64307;52.508;6.090;2024-02-23T14:16:25;4.50;;;0.77;;
75691;SDS011;64307;52.508;6.090;2024-02-23T14:18:50;3.33;;;0.90;;
75691;SDS011;64307;52.508;6.090;2024-02-23T14:21:15;5.10;;;0.93;;
75691;SDS011;64307;52.508;6.090;2024-02-23T14:23:41;4.13;;;0.80;;
75691;SDS011;64307;52.508;6.090;2024-02-23T14:26:06;5.40;;;1.25;;
75691;SDS011;64307;52.508;6.090;2024-02-23T14:28:32;2.10;;;0.60;;
75691;SDS011;64307;52.508;6.090;2024-02-23T14:30:57;2.80;;;0.70;;
75691;SDS011;64307;52.508;6.090;2024-02-23T14:33:22;3.70;;;0.70;;
75691;SDS011;64307;52.508;6.090;2024-02-23T14:35:48;2.93;;;0.60;;
75691;SDS011;64307;52.508;6.090;2024-02-23T14:40:39;3.63;;;0.85;;
75691;SDS011;64307;52.508;6.090;2024-02-23T14:43:04;2.50;;;0.80;;
75691;SDS011;64307;52.508;6.090;2024-02-23T14:45:30;5.05;;;0.88;;
75691;SDS011;64307;52.508;6.090;2024-02-23T14:47:55;3.13;;;1.03;;
75691;SDS011;64307;52.508;6.090;2024-02-23T14:50:20;2.17;;;0.60;;
75691;SDS011;64307;52.508;6.090;2024-02-23T14:52:45;8.23;;;3.20;;
75691;SDS011;64307;52.508;6.090;2024-02-23T14:55:11;5.20;;;1.03;;
75691;SDS011;64307;52.508;6.090;2024-02-23T14:57:36;2.63;;;0.75;;
75691;SDS011;64307;52.508;6.090;2024-02-23T15:00:01;3.25;;;0.57;;
75691;SDS011;64307;52.508;6.090;2024-02-23T15:02:28;4.70;;;0.77;;
75691;SDS011;64307;52.508;6.090;2024-02-23T15:04:53;2.95;;;0.60;;
75691;SDS011;64307;52.508;6.090;2024-02-23T15:07:18;4.23;;;0.70;;